createdAt,value
2018-06-23T00:00:30.252Z,21.60
2018-06-23T00:01:01.448Z,21.60
2018-06-23T00:01:32.639Z,21.57
2018-06-23T00:02:03.811Z,21.51
2018-06-23T00:02:34.981Z,21.51
2018-06-23T00:03:06.161Z,21.45
2018-06-23T00:03:37.427Z,21.44
2018-06-23T00:04:08.654Z,21.43
2018-06-23T00:04:39.834Z,21.40
2018-06-23T00:05:11.001Z,21.35
2018-06-23T00:05:42.168Z,21.27
2018-06-23T00:06:13.392Z,21.28
2018-06-23T00:06:44.584Z,21.27
2018-06-23T00:07:15.767Z,21.30
2018-06-23T00:07:46.944Z,21.26
2018-06-23T00:08:18.135Z,21.28
2018-06-23T00:08:49.361Z,21.31
2018-06-23T00:09:20.581Z,21.29
2018-06-23T00:09:51.772Z,21.23
2018-06-23T00:10:22.933Z,21.16
2018-06-23T00:10:54.201Z,21.14
2018-06-23T00:11:26.176Z,21.13
2018-06-23T00:11:57.408Z,21.14
2018-06-23T00:12:28.588Z,21.09
2018-06-23T00:12:59.832Z,21.09
2018-06-23T00:13:31.000Z,21.04
2018-06-23T00:14:02.273Z,21.06
2018-06-23T00:14:33.506Z,21.07
2018-06-23T00:15:04.741Z,21.03
2018-06-23T00:15:35.972Z,20.98
2018-06-23T00:16:07.197Z,20.92
2018-06-23T00:16:38.386Z,20.89
2018-06-23T00:17:09.566Z,20.82
2018-06-23T00:17:40.748Z,20.83
2018-06-23T00:18:11.926Z,20.81
2018-06-23T00:18:43.149Z,20.80
2018-06-23T00:19:14.335Z,20.81
2018-06-23T00:19:45.512Z,20.74
2018-06-23T00:20:16.749Z,20.67
2018-06-23T00:20:47.938Z,20.62
2018-06-23T00:21:19.116Z,20.56
2018-06-23T00:21:51.303Z,20.52
2018-06-23T00:22:22.481Z,20.52
2018-06-23T00:22:53.656Z,20.49
2018-06-23T00:23:24.842Z,20.48
2018-06-23T00:23:56.062Z,20.44
2018-06-23T00:24:27.240Z,20.34
2018-06-23T00:24:58.464Z,20.27
2018-06-23T00:25:29.649Z,20.18
2018-06-23T00:26:00.825Z,20.16
2018-06-23T00:26:32.066Z,20.11
2018-06-23T00:27:03.299Z,20.10
2018-06-23T00:27:35.653Z,20.02
2018-06-23T00:28:06.888Z,19.99
2018-06-23T00:28:38.077Z,19.97
2018-06-23T00:29:09.297Z,19.91
2018-06-23T00:29:40.477Z,19.85
2018-06-23T00:30:11.663Z,19.82
2018-06-23T00:30:42.885Z,19.80
2018-06-23T00:31:14.061Z,19.81
2018-06-23T00:31:45.228Z,19.80
2018-06-23T00:32:16.398Z,19.80
2018-06-23T00:32:47.566Z,19.75
2018-06-23T00:33:18.790Z,19.76
2018-06-23T00:33:49.980Z,19.79
2018-06-23T00:34:21.261Z,19.83
2018-06-23T00:34:52.439Z,19.76
2018-06-23T00:35:23.604Z,19.76
2018-06-23T00:35:54.781Z,19.72
2018-06-23T00:36:25.956Z,19.74
2018-06-23T00:36:57.128Z,19.74
2018-06-23T00:37:28.338Z,19.71
2018-06-23T00:37:59.516Z,19.68
2018-06-23T00:38:30.736Z,19.62
2018-06-23T00:39:01.961Z,19.58
2018-06-23T00:39:33.135Z,19.55
2018-06-23T00:40:04.365Z,19.52
2018-06-23T00:40:35.536Z,19.53
2018-06-23T00:41:06.746Z,19.55
2018-06-23T00:41:37.960Z,19.55
2018-06-23T00:42:09.136Z,19.55
2018-06-23T00:42:40.352Z,19.54
2018-06-23T00:43:11.529Z,19.57
2018-06-23T00:43:42.704Z,19.56
2018-06-23T00:44:13.873Z,19.55
2018-06-23T00:44:45.115Z,19.55
2018-06-23T00:45:16.382Z,19.58
2018-06-23T00:45:47.569Z,19.56
2018-06-23T00:46:18.788Z,19.54
2018-06-23T00:46:50.000Z,19.55
2018-06-23T00:47:21.188Z,19.50
2018-06-23T00:47:52.408Z,19.49
2018-06-23T00:48:23.577Z,19.47
2018-06-23T00:48:54.796Z,19.47
2018-06-23T00:49:25.976Z,19.46
2018-06-23T00:49:57.156Z,19.47
2018-06-23T00:50:28.326Z,19.49
2018-06-23T00:50:59.553Z,19.52
2018-06-23T00:51:30.739Z,19.55
2018-06-23T00:52:01.921Z,19.56
2018-06-23T00:52:33.102Z,19.62
2018-06-23T00:53:04.379Z,19.64
2018-06-23T00:53:36.227Z,19.62
2018-06-23T00:54:07.469Z,19.59
2018-06-23T00:54:38.657Z,19.59
2018-06-23T00:55:09.882Z,19.56
2018-06-23T00:55:41.060Z,19.54
2018-06-23T00:56:12.236Z,19.51
2018-06-23T00:56:43.458Z,19.47
2018-06-23T00:57:14.649Z,19.46
2018-06-23T00:57:45.830Z,19.44
2018-06-23T00:58:17.071Z,19.41
2018-06-23T00:58:48.239Z,19.36
2018-06-23T00:59:19.404Z,19.35
2018-06-23T00:59:50.584Z,19.34
2018-06-23T01:00:21.764Z,19.29
2018-06-23T01:00:52.940Z,19.27
2018-06-23T01:01:24.100Z,19.27
2018-06-23T01:01:55.305Z,19.26
2018-06-23T01:02:26.464Z,19.24
2018-06-23T01:02:57.642Z,19.24
2018-06-23T01:03:28.929Z,19.25
2018-06-23T01:04:00.108Z,19.27
2018-06-23T01:04:31.283Z,19.28
2018-06-23T01:05:02.527Z,19.27
2018-06-23T01:05:33.761Z,19.28
2018-06-23T01:06:04.993Z,19.24
2018-06-23T01:06:36.345Z,19.23
2018-06-23T01:07:07.575Z,19.21
2018-06-23T01:07:38.752Z,19.19
2018-06-23T01:08:09.967Z,19.18
2018-06-23T01:08:41.184Z,19.19
2018-06-23T01:09:12.416Z,19.20
2018-06-23T01:09:43.595Z,19.20
2018-06-23T01:10:14.815Z,19.19
2018-06-23T01:10:45.985Z,19.16
2018-06-23T01:11:17.160Z,19.19
2018-06-23T01:11:48.336Z,19.20
2018-06-23T01:12:20.285Z,19.20
2018-06-23T01:12:51.457Z,19.21
2018-06-23T01:13:22.624Z,19.24
2018-06-23T01:13:53.792Z,19.24
2018-06-23T01:14:24.964Z,19.23
2018-06-23T01:14:56.142Z,19.24
2018-06-23T01:15:27.357Z,19.23
2018-06-23T01:15:58.578Z,19.21
2018-06-23T01:16:29.767Z,19.18
2018-06-23T01:17:01.522Z,19.16
2018-06-23T01:17:32.744Z,19.15
2018-06-23T01:18:03.935Z,19.13
2018-06-23T01:18:35.167Z,19.14
2018-06-23T01:19:06.352Z,19.14
2018-06-23T01:19:37.617Z,19.14
2018-06-23T01:20:08.808Z,19.12
2018-06-23T01:20:39.977Z,19.09
2018-06-23T01:21:11.213Z,19.14
2018-06-23T01:21:42.524Z,19.14
2018-06-23T01:22:13.756Z,19.12
2018-06-23T01:22:44.932Z,19.10
2018-06-23T01:23:16.117Z,19.10
2018-06-23T01:23:47.294Z,19.09
2018-06-23T01:24:18.468Z,19.13
2018-06-23T01:24:49.684Z,19.14
2018-06-23T01:25:20.864Z,19.14
2018-06-23T01:25:52.070Z,19.12
2018-06-23T01:26:23.299Z,19.11
2018-06-23T01:26:54.484Z,19.09
2018-06-23T01:27:25.652Z,19.05
2018-06-23T01:27:56.821Z,19.04
2018-06-23T01:28:27.988Z,19.03
2018-06-23T01:28:59.158Z,19.01
2018-06-23T01:29:31.431Z,19.01
2018-06-23T01:30:02.662Z,18.98
2018-06-23T01:30:33.900Z,18.97
2018-06-23T01:31:05.133Z,18.95
2018-06-23T01:31:36.312Z,18.95
2018-06-23T01:32:07.503Z,18.95
2018-06-23T01:32:38.712Z,18.96
2018-06-23T01:33:09.924Z,18.94
2018-06-23T01:33:41.096Z,18.93
2018-06-23T01:34:12.264Z,18.95
2018-06-23T01:34:43.512Z,18.96
2018-06-23T01:35:14.729Z,18.94
2018-06-23T01:35:45.968Z,18.92
2018-06-23T01:36:17.181Z,18.97
2018-06-23T01:36:48.349Z,18.95
2018-06-23T01:37:19.524Z,18.91
2018-06-23T01:37:50.709Z,18.90
2018-06-23T01:38:21.968Z,18.91
2018-06-23T01:38:53.148Z,18.86
2018-06-23T01:39:24.346Z,18.84
2018-06-23T01:39:55.568Z,18.86
2018-06-23T01:40:26.745Z,18.88
2018-06-23T01:40:57.974Z,18.85
2018-06-23T01:41:29.204Z,18.81
2018-06-23T01:42:00.368Z,18.76
2018-06-23T01:42:31.544Z,18.75
2018-06-23T01:43:02.757Z,18.73
2018-06-23T01:43:33.936Z,18.73
2018-06-23T01:44:05.165Z,18.75
2018-06-23T01:44:36.337Z,18.73
2018-06-23T01:45:07.507Z,18.72
2018-06-23T01:45:39.716Z,18.70
2018-06-23T01:46:10.907Z,18.71
2018-06-23T01:46:42.233Z,18.69
2018-06-23T01:47:13.420Z,18.69
2018-06-23T01:47:44.589Z,18.65
2018-06-23T01:48:15.768Z,18.60
2018-06-23T01:48:46.941Z,18.56
2018-06-23T01:49:18.165Z,18.55
2018-06-23T01:49:49.431Z,18.51
2018-06-23T01:50:20.649Z,18.52
2018-06-23T01:50:51.833Z,18.51
2018-06-23T01:51:23.005Z,18.51
2018-06-23T01:51:54.169Z,18.49
2018-06-23T01:52:25.409Z,18.49
2018-06-23T01:52:56.580Z,18.45
2018-06-23T01:53:27.748Z,18.43
2018-06-23T01:53:58.969Z,18.41
2018-06-23T01:54:30.196Z,18.39
2018-06-23T01:55:01.460Z,18.38
2018-06-23T01:55:32.643Z,18.35
2018-06-23T01:56:03.816Z,18.35
2018-06-23T01:56:35.004Z,18.38
2018-06-23T01:57:06.233Z,18.38
2018-06-23T01:57:38.201Z,18.35
2018-06-23T01:58:09.518Z,18.34
2018-06-23T01:58:40.759Z,18.31
2018-06-23T01:59:11.940Z,18.29
2018-06-23T01:59:43.100Z,18.29
2018-06-23T02:00:14.272Z,18.28
2018-06-23T02:00:45.433Z,18.28
2018-06-23T02:01:16.669Z,18.22
2018-06-23T02:01:47.858Z,18.21
2018-06-23T02:02:19.038Z,18.22
2018-06-23T02:02:50.227Z,18.26
2018-06-23T02:03:21.514Z,18.25
2018-06-23T02:03:52.762Z,18.24
2018-06-23T02:04:23.937Z,18.22
2018-06-23T02:04:55.153Z,18.19
2018-06-23T02:05:26.369Z,18.20
2018-06-23T02:05:57.589Z,18.21
2018-06-23T02:06:28.773Z,18.20
2018-06-23T02:06:59.993Z,18.21
2018-06-23T02:07:31.181Z,18.19
2018-06-23T02:08:02.452Z,18.19
2018-06-23T02:08:33.678Z,18.18
2018-06-23T02:09:04.922Z,18.17
2018-06-23T02:09:36.117Z,18.18
2018-06-23T02:10:07.361Z,18.18
2018-06-23T02:10:38.585Z,18.18
2018-06-23T02:11:09.817Z,18.16
2018-06-23T02:11:40.996Z,18.15
2018-06-23T02:12:12.168Z,18.14
2018-06-23T02:12:43.340Z,18.16
2018-06-23T02:13:14.500Z,18.17
2018-06-23T02:13:46.916Z,18.15
2018-06-23T02:14:18.083Z,18.17
2018-06-23T02:14:49.257Z,18.19
2018-06-23T02:15:20.479Z,18.18
2018-06-23T02:15:51.667Z,18.16
2018-06-23T02:16:22.845Z,18.17
2018-06-23T02:16:54.065Z,18.15
2018-06-23T02:17:25.241Z,18.18
2018-06-23T02:17:56.453Z,18.18
2018-06-23T02:18:27.634Z,18.18
2018-06-23T02:18:58.844Z,18.13
2018-06-23T02:19:30.062Z,18.12
2018-06-23T02:20:01.342Z,18.10
2018-06-23T02:20:32.521Z,18.10
2018-06-23T02:21:03.693Z,18.07
2018-06-23T02:21:34.865Z,18.06
2018-06-23T02:22:06.098Z,18.04
2018-06-23T02:22:37.316Z,18.01
2018-06-23T02:23:08.492Z,18.02
2018-06-23T02:23:39.753Z,18.02
2018-06-23T02:24:11.013Z,18.03
2018-06-23T02:24:42.242Z,18.04
2018-06-23T02:25:13.462Z,18.03
2018-06-23T02:25:44.693Z,18.03
2018-06-23T02:26:16.902Z,18.00
2018-06-23T02:26:48.073Z,17.99
2018-06-23T02:27:19.244Z,17.96
2018-06-23T02:27:50.469Z,17.96
2018-06-23T02:28:21.641Z,17.98
2018-06-23T02:28:52.804Z,18.00
2018-06-23T02:29:23.993Z,17.99
2018-06-23T02:29:55.289Z,17.99
2018-06-23T02:30:26.480Z,17.96
2018-06-23T02:30:57.717Z,17.95
2018-06-23T02:31:29.008Z,17.93
2018-06-23T02:32:00.184Z,17.96
2018-06-23T02:32:31.445Z,17.95
2018-06-23T02:33:02.679Z,17.95
2018-06-23T02:33:33.869Z,17.95
2018-06-23T02:34:05.093Z,17.93
2018-06-23T02:34:36.261Z,17.94
2018-06-23T02:35:07.485Z,17.93
2018-06-23T02:35:38.665Z,17.92
2018-06-23T02:36:09.832Z,17.91
2018-06-23T02:36:42.022Z,17.91
2018-06-23T02:37:13.256Z,17.91
2018-06-23T02:37:44.497Z,17.91
2018-06-23T02:38:15.680Z,17.89
2018-06-23T02:38:46.901Z,17.89
2018-06-23T02:39:18.132Z,17.90
2018-06-23T02:39:49.394Z,17.90
2018-06-23T02:40:20.577Z,17.93
2018-06-23T02:40:51.748Z,17.93
2018-06-23T02:41:22.930Z,17.97
2018-06-23T02:41:54.189Z,17.99
2018-06-23T02:42:26.194Z,17.97
2018-06-23T02:42:57.360Z,17.98
2018-06-23T02:43:28.537Z,18.00
2018-06-23T02:43:59.790Z,18.01
2018-06-23T02:44:30.956Z,17.99
2018-06-23T02:45:02.176Z,17.96
2018-06-23T02:45:33.358Z,17.96
2018-06-23T02:46:04.525Z,17.96
2018-06-23T02:46:35.701Z,17.96
2018-06-23T02:47:06.960Z,17.96
2018-06-23T02:47:38.132Z,17.99
2018-06-23T02:48:09.305Z,18.03
2018-06-23T02:48:40.479Z,18.06
2018-06-23T02:49:11.708Z,18.07
2018-06-23T02:49:42.887Z,18.05
2018-06-23T02:50:14.110Z,18.07
2018-06-23T02:50:45.345Z,18.08
2018-06-23T02:51:16.524Z,18.10
2018-06-23T02:51:47.702Z,18.12
2018-06-23T02:52:18.896Z,18.12
2018-06-23T02:52:50.116Z,18.12
2018-06-23T02:53:21.285Z,18.13
2018-06-23T02:53:52.448Z,18.11
2018-06-23T02:54:23.608Z,18.10
2018-06-23T02:54:54.825Z,18.10
2018-06-23T02:55:26.005Z,18.09
2018-06-23T02:55:58.408Z,18.10
2018-06-23T02:56:29.576Z,18.15
2018-06-23T02:57:00.821Z,18.16
2018-06-23T02:57:31.989Z,18.18
2018-06-23T02:58:03.201Z,18.17
2018-06-23T02:58:34.377Z,18.20
2018-06-23T02:59:05.566Z,18.22
2018-06-23T02:59:36.757Z,18.27
2018-06-23T03:00:07.989Z,18.31
2018-06-23T03:00:39.205Z,18.30
2018-06-23T03:01:11.211Z,18.30
2018-06-23T03:01:42.397Z,18.29
2018-06-23T03:02:13.568Z,18.29
2018-06-23T03:02:44.751Z,18.28
2018-06-23T03:03:15.984Z,18.27
2018-06-23T03:03:47.165Z,18.30
2018-06-23T03:04:18.390Z,18.30
2018-06-23T03:04:49.636Z,18.31
2018-06-23T03:05:20.811Z,18.32
2018-06-23T03:05:52.037Z,18.37
2018-06-23T03:06:23.220Z,18.40
2018-06-23T03:06:54.810Z,18.39
2018-06-23T03:07:25.997Z,18.39
2018-06-23T03:07:57.220Z,18.42
2018-06-23T03:08:28.385Z,18.47
2018-06-23T03:08:59.556Z,18.46
2018-06-23T03:09:30.778Z,18.43
2018-06-23T03:10:02.018Z,18.39
2018-06-23T03:10:33.240Z,18.38
2018-06-23T03:11:04.413Z,18.39
2018-06-23T03:11:35.609Z,18.42
2018-06-23T03:12:06.801Z,18.39
2018-06-23T03:12:38.067Z,18.37
2018-06-23T03:13:09.290Z,18.32
2018-06-23T03:13:40.533Z,18.30
2018-06-23T03:14:11.766Z,18.26
2018-06-23T03:14:42.946Z,18.25
2018-06-23T03:15:14.147Z,18.23
2018-06-23T03:15:45.329Z,18.20
2018-06-23T03:16:16.494Z,18.20
2018-06-23T03:16:47.665Z,18.19
2018-06-23T03:17:18.848Z,18.22
2018-06-23T03:17:50.040Z,18.26
2018-06-23T03:18:21.254Z,18.30
2018-06-23T03:18:52.486Z,18.34
2018-06-23T03:19:23.713Z,18.36
2018-06-23T03:19:54.977Z,18.36
2018-06-23T03:20:26.251Z,18.35
2018-06-23T03:20:57.426Z,18.33
2018-06-23T03:21:28.604Z,18.30
2018-06-23T03:21:59.839Z,18.25
2018-06-23T03:22:31.053Z,18.23
2018-06-23T03:23:02.220Z,18.24
2018-06-23T03:23:33.786Z,18.26
2018-06-23T03:24:04.989Z,18.26
2018-06-23T03:24:36.156Z,18.17
2018-06-23T03:25:07.339Z,18.14
2018-06-23T03:25:38.605Z,18.13
2018-06-23T03:26:09.786Z,18.12
2018-06-23T03:26:40.957Z,18.05
2018-06-23T03:27:12.127Z,18.03
2018-06-23T03:27:43.288Z,18.07
2018-06-23T03:28:14.524Z,18.07
2018-06-23T03:28:45.700Z,18.10
2018-06-23T03:29:16.955Z,18.12
2018-06-23T03:29:48.237Z,18.08
2018-06-23T03:30:19.420Z,18.06
2018-06-23T03:30:50.632Z,18.06
2018-06-23T03:31:21.805Z,18.03
2018-06-23T03:31:53.021Z,17.97
2018-06-23T03:32:24.200Z,17.95
2018-06-23T03:32:55.456Z,17.92
2018-06-23T03:33:26.688Z,17.93
2018-06-23T03:33:57.872Z,17.91
2018-06-23T03:34:29.117Z,17.89
2018-06-23T03:35:00.356Z,17.87
2018-06-23T03:35:31.598Z,17.87
2018-06-23T03:36:02.845Z,17.89
2018-06-23T03:36:34.036Z,17.87
2018-06-23T03:37:05.285Z,17.86
2018-06-23T03:37:36.461Z,17.86
2018-06-23T03:38:07.733Z,17.84
2018-06-23T03:38:39.163Z,17.84
2018-06-23T03:39:10.383Z,17.82
2018-06-23T03:39:41.571Z,17.80
2018-06-23T03:40:12.806Z,17.80
2018-06-23T03:40:44.077Z,17.80
2018-06-23T03:41:15.253Z,17.83
2018-06-23T03:41:46.416Z,17.86
2018-06-23T03:42:17.600Z,17.89
2018-06-23T03:42:48.837Z,17.92
2018-06-23T03:43:20.022Z,17.91
2018-06-23T03:43:51.237Z,17.91
2018-06-23T03:44:22.451Z,17.90
2018-06-23T03:44:53.670Z,17.88
2018-06-23T03:45:24.876Z,17.86
2018-06-23T03:45:56.040Z,17.82
2018-06-23T03:46:27.271Z,17.78
2018-06-23T03:46:58.447Z,17.79
2018-06-23T03:47:29.631Z,17.75
2018-06-23T03:48:00.855Z,17.78
2018-06-23T03:48:32.024Z,17.79
2018-06-23T03:49:03.194Z,17.81
2018-06-23T03:49:34.363Z,17.80
2018-06-23T03:50:05.605Z,13.77
2018-06-23T03:50:36.876Z,17.77
2018-06-23T03:51:08.130Z,17.77
2018-06-23T03:51:39.315Z,17.82
2018-06-23T03:52:10.496Z,17.80
2018-06-23T03:52:41.674Z,17.80
2018-06-23T03:53:12.870Z,17.75
2018-06-23T03:53:44.040Z,17.74
2018-06-23T03:54:15.248Z,17.71
2018-06-23T03:54:46.761Z,17.68
2018-06-23T03:55:17.998Z,17.71
2018-06-23T03:55:49.261Z,17.71
2018-06-23T03:56:20.488Z,17.75
2018-06-23T03:56:51.664Z,17.75
2018-06-23T03:57:22.836Z,17.79
2018-06-23T03:57:54.005Z,17.81
2018-06-23T03:58:25.233Z,17.81
2018-06-23T03:58:56.412Z,17.78
2018-06-23T03:59:27.573Z,17.78
2018-06-23T03:59:58.791Z,17.80
2018-06-23T04:00:30.016Z,17.78
2018-06-23T04:01:01.249Z,17.76
2018-06-23T04:01:32.425Z,17.76
2018-06-23T04:02:03.590Z,17.79
2018-06-23T04:02:34.764Z,17.77
2018-06-23T04:03:05.934Z,17.70
2018-06-23T04:03:37.124Z,17.66
2018-06-23T04:04:08.333Z,17.65
2018-06-23T04:04:39.555Z,17.66
2018-06-23T04:05:10.720Z,17.69
2018-06-23T04:05:42.242Z,17.74
2018-06-23T04:06:13.458Z,17.74
2018-06-23T04:06:44.690Z,17.72
2018-06-23T04:07:15.884Z,17.72
2018-06-23T04:07:47.049Z,17.78
2018-06-23T04:08:18.220Z,17.82
2018-06-23T04:08:49.419Z,17.89
2018-06-23T04:09:20.638Z,17.91
2018-06-23T04:09:51.836Z,17.93
2018-06-23T04:10:23.026Z,17.91
2018-06-23T04:10:54.250Z,17.91
2018-06-23T04:11:25.549Z,17.88
2018-06-23T04:11:56.801Z,17.83
2018-06-23T04:12:27.996Z,17.82
2018-06-23T04:12:59.156Z,17.75
2018-06-23T04:13:30.327Z,17.75
2018-06-23T04:14:01.496Z,17.71
2018-06-23T04:14:32.671Z,17.70
2018-06-23T04:15:03.901Z,17.68
2018-06-23T04:15:35.119Z,17.70
2018-06-23T04:16:06.295Z,17.68
2018-06-23T04:16:37.513Z,17.69
2018-06-23T04:17:08.793Z,17.65
2018-06-23T04:17:40.032Z,17.63
2018-06-23T04:18:11.200Z,17.59
2018-06-23T04:18:42.411Z,17.59
2018-06-23T04:19:13.640Z,17.62
2018-06-23T04:19:44.820Z,17.62
2018-06-23T04:20:16.058Z,17.67
2018-06-23T04:20:47.285Z,17.65
2018-06-23T04:21:18.513Z,17.65
2018-06-23T04:21:49.745Z,17.69
2018-06-23T04:22:20.964Z,17.77
2018-06-23T04:22:52.184Z,17.80
2018-06-23T04:23:24.703Z,17.74
2018-06-23T04:23:55.869Z,17.67
2018-06-23T04:24:27.077Z,17.62
2018-06-23T04:24:58.306Z,17.60
2018-06-23T04:25:29.497Z,17.58
2018-06-23T04:26:00.733Z,17.49
2018-06-23T04:26:31.961Z,17.42
2018-06-23T04:27:03.148Z,17.38
2018-06-23T04:27:34.745Z,17.37
2018-06-23T04:28:05.976Z,17.35
2018-06-23T04:28:37.192Z,17.31
2018-06-23T04:29:08.380Z,17.29
2018-06-23T04:29:39.598Z,17.34
2018-06-23T04:30:10.780Z,17.39
2018-06-23T04:30:42.000Z,17.21
2018-06-23T04:31:13.163Z,17.38
2018-06-23T04:31:44.327Z,17.37
2018-06-23T04:32:15.493Z,17.34
2018-06-23T04:32:46.726Z,17.34
2018-06-23T04:33:17.926Z,17.33
2018-06-23T04:33:49.096Z,17.30
2018-06-23T04:34:20.325Z,17.29
2018-06-23T04:34:51.568Z,17.27
2018-06-23T04:35:22.796Z,17.27
2018-06-23T04:35:54.008Z,17.27
2018-06-23T04:36:25.241Z,17.27
2018-06-23T04:36:56.468Z,17.26
2018-06-23T04:37:27.649Z,17.26
2018-06-23T04:37:58.825Z,17.28
2018-06-23T04:38:30.042Z,17.30
2018-06-23T04:39:01.265Z,17.25
2018-06-23T04:39:32.480Z,17.24
2018-06-23T04:40:03.697Z,17.25
2018-06-23T04:40:34.944Z,17.22
2018-06-23T04:41:06.173Z,17.17
2018-06-23T04:41:37.440Z,17.17
2018-06-23T04:42:08.665Z,17.18
2018-06-23T04:42:40.077Z,17.16
2018-06-23T04:43:11.256Z,17.19
2018-06-23T04:43:42.425Z,17.19
2018-06-23T04:44:13.631Z,17.19
2018-06-23T04:44:44.805Z,17.25
2018-06-23T04:45:16.029Z,17.27
2018-06-23T04:45:47.260Z,17.28
2018-06-23T04:46:18.432Z,17.25
2018-06-23T04:46:49.677Z,17.24
2018-06-23T04:47:20.855Z,17.23
2018-06-23T04:47:52.016Z,17.25
2018-06-23T04:48:23.240Z,17.24
2018-06-23T04:48:54.485Z,17.23
2018-06-23T04:49:25.669Z,17.20
2018-06-23T04:49:56.838Z,17.17
2018-06-23T04:50:28.005Z,17.20
2018-06-23T04:50:59.216Z,17.24
2018-06-23T04:51:30.389Z,17.26
2018-06-23T04:52:01.557Z,17.33
2018-06-23T04:52:32.776Z,17.38
2018-06-23T04:53:03.950Z,17.39
2018-06-23T04:53:35.117Z,17.40
2018-06-23T04:54:06.320Z,17.36
2018-06-23T04:54:37.501Z,17.29
2018-06-23T04:55:08.689Z,17.25
2018-06-23T04:55:39.943Z,17.19
2018-06-23T04:56:11.180Z,17.14
2018-06-23T04:56:42.362Z,17.11
2018-06-23T04:57:13.633Z,17.10
2018-06-23T04:57:44.810Z,17.08
2018-06-23T04:58:15.996Z,17.10
2018-06-23T04:58:47.174Z,17.11
2018-06-23T04:59:18.410Z,17.12
2018-06-23T04:59:49.645Z,17.14
2018-06-23T05:00:20.829Z,17.17
2018-06-23T05:00:52.022Z,17.16
2018-06-23T05:01:23.239Z,17.11
2018-06-23T05:01:54.428Z,17.10
2018-06-23T05:02:25.655Z,17.13
2018-06-23T05:02:56.828Z,17.18
2018-06-23T05:03:28.062Z,17.24
2018-06-23T05:03:59.236Z,17.24
2018-06-23T05:04:30.398Z,17.26
2018-06-23T05:05:01.621Z,17.23
2018-06-23T05:05:32.796Z,17.22
2018-06-23T05:06:03.969Z,17.23
2018-06-23T05:06:35.145Z,17.22
2018-06-23T05:07:06.381Z,17.22
2018-06-23T05:07:37.669Z,17.24
2018-06-23T05:08:08.892Z,17.20
2018-06-23T05:08:40.119Z,17.19
2018-06-23T05:09:11.297Z,17.16
2018-06-23T05:09:42.475Z,17.14
2018-06-23T05:10:13.641Z,17.14
2018-06-23T05:10:44.928Z,17.13
2018-06-23T05:11:16.153Z,17.12
2018-06-23T05:11:48.289Z,17.07
2018-06-23T05:12:19.581Z,17.05
2018-06-23T05:12:50.825Z,17.02
2018-06-23T05:13:22.018Z,17.00
2018-06-23T05:13:53.233Z,16.95
2018-06-23T05:14:24.560Z,16.98
2018-06-23T05:14:55.791Z,16.98
2018-06-23T05:15:26.964Z,17.01
2018-06-23T05:15:58.177Z,17.00
2018-06-23T05:16:29.413Z,16.95
2018-06-23T05:17:00.696Z,16.92
2018-06-23T05:17:31.916Z,16.93
2018-06-23T05:18:03.088Z,16.97
2018-06-23T05:18:34.258Z,16.96
2018-06-23T05:19:05.438Z,16.94
2018-06-23T05:19:36.602Z,16.95
2018-06-23T05:20:07.791Z,16.98
2018-06-23T05:20:39.021Z,17.01
2018-06-23T05:21:10.192Z,17.01
2018-06-23T05:21:41.361Z,16.99
2018-06-23T05:22:12.585Z,16.97
2018-06-23T05:22:43.827Z,16.95
2018-06-23T05:23:15.003Z,16.98
2018-06-23T05:23:46.170Z,16.98
2018-06-23T05:24:17.348Z,17.01
2018-06-23T05:24:48.513Z,16.96
2018-06-23T05:25:19.673Z,16.95
2018-06-23T05:25:56.860Z,16.77
2018-06-23T05:26:27.977Z,16.82
2018-06-23T05:26:59.110Z,16.77
2018-06-23T05:27:30.329Z,16.73
2018-06-23T05:28:01.512Z,16.67
2018-06-23T05:28:32.789Z,16.59
2018-06-23T05:29:03.977Z,16.55
2018-06-23T05:29:35.228Z,16.50
2018-06-23T05:30:06.433Z,16.48
2018-06-23T05:30:37.608Z,16.46
2018-06-23T05:31:08.846Z,16.39
2018-06-23T05:31:40.130Z,16.38
2018-06-23T05:32:11.316Z,16.26
2018-06-23T05:32:42.541Z,16.41
2018-06-23T05:33:13.736Z,16.40
2018-06-23T05:33:45.019Z,16.41
2018-06-23T05:34:16.262Z,16.38
2018-06-23T05:34:47.436Z,16.39
2018-06-23T05:35:18.633Z,16.35
2018-06-23T05:35:50.601Z,16.35
2018-06-23T05:36:21.784Z,16.33
2018-06-23T05:36:53.038Z,16.33
2018-06-23T05:37:24.273Z,16.31
2018-06-23T05:37:55.461Z,16.28
2018-06-23T05:38:26.641Z,16.28
2018-06-23T05:38:57.832Z,16.26
2018-06-23T05:39:29.061Z,16.28
2018-06-23T05:40:00.262Z,16.23
2018-06-23T05:40:31.464Z,16.27
2018-06-23T05:41:02.765Z,16.26
2018-06-23T05:41:33.950Z,16.30
2018-06-23T05:42:05.131Z,16.31
2018-06-23T05:42:36.431Z,16.31
2018-06-23T05:43:07.605Z,16.32
2018-06-23T05:43:38.870Z,16.36
2018-06-23T05:44:10.101Z,16.32
2018-06-23T05:44:41.335Z,16.33
2018-06-23T05:45:12.573Z,16.37
2018-06-23T05:45:43.800Z,16.44
2018-06-23T05:46:15.089Z,16.52
2018-06-23T05:46:46.305Z,16.51
2018-06-23T05:47:17.517Z,16.54
2018-06-23T05:47:48.755Z,16.57
2018-06-23T05:48:19.957Z,16.60
2018-06-23T05:48:51.284Z,16.66
2018-06-23T05:49:22.471Z,16.69
2018-06-23T05:49:53.715Z,16.72
2018-06-23T05:50:24.912Z,16.77
2018-06-23T05:50:56.085Z,16.79
2018-06-23T05:51:27.303Z,16.81
2018-06-23T05:51:58.478Z,16.87
2018-06-23T05:52:29.700Z,16.87
2018-06-23T05:53:00.910Z,16.95
2018-06-23T05:53:32.085Z,16.93
2018-06-23T05:54:03.270Z,16.93
2018-06-23T05:54:34.438Z,16.97
2018-06-23T05:55:05.628Z,17.01
2018-06-23T05:55:36.851Z,17.07
2018-06-23T05:56:08.026Z,16.93
2018-06-23T05:56:39.261Z,17.13
2018-06-23T05:57:10.432Z,17.16
2018-06-23T05:57:41.645Z,17.17
2018-06-23T05:58:12.821Z,17.26
2018-06-23T05:58:43.987Z,17.39
2018-06-23T05:59:15.864Z,17.49
2018-06-23T05:59:47.068Z,17.60
2018-06-23T06:00:18.269Z,17.63
2018-06-23T06:00:49.591Z,17.67
2018-06-23T06:01:20.811Z,17.68
2018-06-23T06:01:52.049Z,17.73
2018-06-23T06:02:23.235Z,17.71
2018-06-23T06:02:54.461Z,17.75
2018-06-23T06:03:25.627Z,17.78
2018-06-23T06:03:56.851Z,17.74
2018-06-23T06:04:28.461Z,17.78
2018-06-23T06:04:59.640Z,17.88
2018-06-23T06:05:30.821Z,17.93
2018-06-23T06:06:01.996Z,17.92
2018-06-23T06:06:33.220Z,17.89
2018-06-23T06:07:04.419Z,17.86
2018-06-23T06:07:35.592Z,17.84
2018-06-23T06:08:06.793Z,17.86
2018-06-23T06:08:38.000Z,17.89
2018-06-23T06:09:09.184Z,17.89
2018-06-23T06:09:40.414Z,17.92
2018-06-23T06:10:11.600Z,17.95
2018-06-23T06:10:42.811Z,18.04
2018-06-23T06:11:13.984Z,18.02
2018-06-23T06:11:45.258Z,18.01
2018-06-23T06:12:16.464Z,18.05
2018-06-23T06:12:47.720Z,18.08
2018-06-23T06:13:18.960Z,18.10
2018-06-23T06:13:50.191Z,18.14
2018-06-23T06:14:21.388Z,18.16
2018-06-23T06:14:52.693Z,18.19
2018-06-23T06:15:24.016Z,18.18
2018-06-23T06:15:55.249Z,18.18
2018-06-23T06:16:26.542Z,18.09
2018-06-23T06:16:57.720Z,18.07
2018-06-23T06:17:29.006Z,18.08
2018-06-23T06:18:00.599Z,18.09
2018-06-23T06:18:31.845Z,18.06
2018-06-23T06:19:03.788Z,18.05
2018-06-23T06:19:34.987Z,18.06
2018-06-23T06:20:06.161Z,18.12
2018-06-23T06:20:37.380Z,18.20
2018-06-23T06:21:08.621Z,18.24
2018-06-23T06:21:39.848Z,18.28
2018-06-23T06:22:11.016Z,18.28
2018-06-23T06:22:42.249Z,18.30
2018-06-23T06:23:13.484Z,18.27
2018-06-23T06:23:44.729Z,18.26
2018-06-23T06:24:15.933Z,18.30
2018-06-23T06:24:47.182Z,18.28
2018-06-23T06:25:18.476Z,18.26
2018-06-23T06:25:49.661Z,18.24
2018-06-23T06:26:20.984Z,18.30
2018-06-23T06:26:52.221Z,18.33
2018-06-23T06:27:23.448Z,18.34
2018-06-23T06:27:54.699Z,18.35
2018-06-23T06:28:25.883Z,18.35
2018-06-23T06:28:57.048Z,18.39
2018-06-23T06:29:28.255Z,18.44
2018-06-23T06:29:59.480Z,18.46
2018-06-23T06:30:30.663Z,18.44
2018-06-23T06:31:01.969Z,18.49
2018-06-23T06:31:33.201Z,18.55
2018-06-23T06:32:04.433Z,18.61
2018-06-23T06:32:35.701Z,18.62
2018-06-23T06:33:06.935Z,18.64
2018-06-23T06:33:38.236Z,18.64
2018-06-23T06:34:09.408Z,18.70
2018-06-23T06:34:40.580Z,18.82
2018-06-23T06:35:11.818Z,18.88
2018-06-23T06:35:43.095Z,18.87
2018-06-23T06:36:14.288Z,18.89
2018-06-23T06:36:45.463Z,18.95
2018-06-23T06:37:16.717Z,19.07
2018-06-23T06:37:48.047Z,19.20
2018-06-23T06:38:19.249Z,19.36
2018-06-23T06:38:50.445Z,19.45
2018-06-23T06:39:21.685Z,19.51
2018-06-23T06:39:52.905Z,19.51
2018-06-23T06:40:24.127Z,19.55
2018-06-23T06:40:55.372Z,19.64
2018-06-23T06:41:26.548Z,19.75
2018-06-23T06:41:57.725Z,19.72
2018-06-23T06:42:28.943Z,19.75